createdAt,value
2023-01-17T00:00:43.422Z,10
2023-01-17T00:01:43.407Z,9
2023-01-17T00:02:43.421Z,9
2023-01-17T00:04:43.421Z,11
2023-01-17T00:05:43.407Z,11
2023-01-17T00:06:43.422Z,10
2023-01-17T00:07:43.488Z,11
2023-01-17T00:08:43.422Z,12
2023-01-17T00:09:43.408Z,11
2023-01-17T00:10:43.422Z,15
2023-01-17T00:11:43.423Z,14
2023-01-17T00:12:43.422Z,15
2023-01-17T00:13:43.408Z,16
2023-01-17T00:14:43.423Z,12
2023-01-17T00:15:43.424Z,14
2023-01-17T00:16:43.409Z,16
2023-01-17T00:17:43.409Z,18
2023-01-17T00:18:43.423Z,16
2023-01-17T00:19:43.464Z,15
2023-01-17T00:20:43.409Z,14
2023-01-17T00:21:43.424Z,16
2023-01-17T00:22:43.424Z,17
2023-01-17T00:23:43.424Z,14
2023-01-17T00:24:43.410Z,14
2023-01-17T00:25:43.424Z,12
2023-01-17T00:26:43.425Z,13
2023-01-17T00:27:43.424Z,13
2023-01-17T00:28:43.410Z,11
2023-01-17T00:29:43.424Z,14
2023-01-17T00:30:43.425Z,13
2023-01-17T00:31:43.410Z,13
2023-01-17T00:32:43.411Z,9
2023-01-17T00:33:43.425Z,10
2023-01-17T00:34:43.426Z,10
2023-01-17T00:35:43.411Z,8
2023-01-17T00:36:43.475Z,10
2023-01-17T00:37:43.425Z,10
2023-01-17T00:38:43.425Z,10
2023-01-17T00:39:43.411Z,13
2023-01-17T00:40:43.425Z,9
2023-01-17T00:41:43.492Z,11
2023-01-17T00:42:43.426Z,11
2023-01-17T00:43:43.412Z,10
2023-01-17T00:44:43.426Z,9
2023-01-17T00:45:43.427Z,8
2023-01-17T00:46:43.426Z,11
2023-01-17T00:47:43.412Z,11
2023-01-17T00:48:43.491Z,10
2023-01-17T00:49:43.427Z,11
2023-01-17T00:50:43.412Z,11
2023-01-17T00:51:43.412Z,10
2023-01-17T00:52:43.427Z,10
2023-01-17T00:53:43.428Z,10
2023-01-17T00:54:43.413Z,9
2023-01-17T00:55:43.427Z,10
2023-01-17T00:56:43.427Z,10
2023-01-17T00:57:43.427Z,10
2023-01-17T00:58:43.413Z,10
2023-01-17T00:59:43.427Z,8
2023-01-17T01:00:43.473Z,10
2023-01-17T01:01:43.427Z,9
2023-01-17T01:02:43.414Z,9
2023-01-17T01:03:43.428Z,8
2023-01-17T01:04:43.429Z,9
2023-01-17T01:05:43.428Z,9
2023-01-17T01:06:43.414Z,9
2023-01-17T01:07:43.428Z,7
2023-01-17T01:08:43.429Z,6
2023-01-17T01:09:43.414Z,10
2023-01-17T01:10:43.414Z,10
2023-01-17T01:11:43.428Z,12
2023-01-17T01:12:43.470Z,11
2023-01-17T01:13:43.415Z,13
2023-01-17T01:14:43.429Z,10
2023-01-17T01:15:43.429Z,10
2023-01-17T01:16:43.429Z,12
2023-01-17T01:17:43.429Z,11
2023-01-17T01:18:43.429Z,11
2023-01-17T01:19:43.430Z,10
2023-01-17T01:20:43.429Z,12
2023-01-17T01:21:43.415Z,12
2023-01-17T01:22:43.430Z,10
2023-01-17T01:23:43.431Z,10
2023-01-17T01:24:43.416Z,11
2023-01-17T01:25:43.416Z,9
2023-01-17T01:26:43.430Z,10
2023-01-17T01:27:43.431Z,8
2023-01-17T01:28:43.416Z,9
2023-01-17T01:29:43.472Z,10
2023-01-17T01:30:43.430Z,12
2023-01-17T01:31:43.430Z,14
2023-01-17T01:32:43.417Z,13
2023-01-17T01:33:43.431Z,12
2023-01-17T01:34:43.431Z,12
2023-01-17T01:35:43.431Z,12
2023-01-17T01:36:43.417Z,12
2023-01-17T01:37:43.431Z,12
2023-01-17T01:38:43.432Z,12
2023-01-17T01:39:43.431Z,11
2023-01-17T01:40:43.417Z,10
2023-01-17T01:41:43.431Z,10
2023-01-17T01:42:43.432Z,11
2023-01-17T01:43:43.418Z,12
2023-01-17T01:44:43.418Z,10
2023-01-17T01:45:43.432Z,11
2023-01-17T01:46:43.433Z,10
2023-01-17T01:47:43.418Z,8
2023-01-17T01:48:43.432Z,7
2023-01-17T01:49:43.432Z,7
2023-01-17T01:50:43.433Z,7
2023-01-17T01:51:43.418Z,8
2023-01-17T01:52:43.433Z,7
2023-01-17T01:54:43.433Z,7
2023-01-17T01:55:43.419Z,7
2023-01-17T01:56:43.433Z,6
2023-01-17T01:57:43.434Z,9
2023-01-17T01:58:43.419Z,7
2023-01-17T01:59:43.419Z,8
2023-01-17T02:00:43.433Z,7
2023-01-17T02:01:43.434Z,7
2023-01-17T02:02:43.419Z,8
2023-01-17T02:03:43.420Z,9
2023-01-17T02:04:43.434Z,8
2023-01-17T02:05:43.434Z,9
2023-01-17T02:06:43.420Z,9
2023-01-17T02:07:43.434Z,10
2023-01-17T02:08:43.434Z,9
2023-01-17T02:09:43.434Z,8
2023-01-17T02:10:43.420Z,8
2023-01-17T02:11:43.434Z,8
2023-01-17T02:12:43.435Z,8
2023-01-17T02:14:43.421Z,6
2023-01-17T02:15:43.435Z,7
2023-01-17T02:16:43.436Z,5
2023-01-17T02:17:43.421Z,5
2023-01-17T02:18:43.421Z,9
2023-01-17T02:19:43.435Z,6
2023-01-17T02:20:43.436Z,5
2023-01-17T02:21:43.421Z,6
2023-01-17T02:22:43.436Z,6
2023-01-17T02:23:43.436Z,7
2023-01-17T02:24:43.436Z,7
2023-01-17T02:25:43.422Z,8
2023-01-17T02:26:43.436Z,10
2023-01-17T02:27:43.436Z,9
2023-01-17T02:28:43.436Z,9
2023-01-17T02:29:43.422Z,10
2023-01-17T02:30:43.436Z,10
2023-01-17T02:32:43.436Z,12
2023-01-17T02:33:43.422Z,11
2023-01-17T02:34:43.462Z,10
2023-01-17T02:35:43.437Z,10
2023-01-17T02:36:43.423Z,10
2023-01-17T02:37:43.423Z,10
2023-01-17T02:38:43.437Z,11
2023-01-17T02:39:43.438Z,9
2023-01-17T02:40:43.423Z,8
2023-01-17T02:41:43.437Z,13
2023-01-17T02:42:43.437Z,11
2023-01-17T02:43:43.437Z,11
2023-01-17T02:44:43.423Z,10
2023-01-17T02:45:43.438Z,11
2023-01-17T02:46:43.443Z,10
2023-01-17T02:47:43.438Z,11
2023-01-17T02:48:43.424Z,14
2023-01-17T02:49:43.438Z,11
2023-01-17T02:50:43.439Z,11
2023-01-17T02:51:43.438Z,10
2023-01-17T02:52:43.424Z,10
2023-01-17T02:53:43.438Z,14
2023-01-17T02:54:43.439Z,13
2023-01-17T02:55:43.424Z,15
2023-01-17T02:56:43.425Z,12
2023-01-17T02:57:43.439Z,12
2023-01-17T02:58:43.439Z,13
2023-01-17T02:59:43.425Z,12
2023-01-17T03:00:43.439Z,13
2023-01-17T03:01:43.439Z,13
2023-01-17T03:02:43.439Z,12
2023-01-17T03:03:43.425Z,13
2023-01-17T03:04:43.440Z,13
2023-01-17T03:05:43.440Z,10
2023-01-17T03:06:43.439Z,9
2023-01-17T03:07:43.426Z,9
2023-01-17T03:08:43.440Z,9
2023-01-17T03:09:43.440Z,9
2023-01-17T03:10:43.426Z,9
2023-01-17T03:11:43.426Z,11
2023-01-17T03:12:43.440Z,11
2023-01-17T03:13:43.441Z,10
2023-01-17T03:14:43.426Z,10
2023-01-17T03:15:43.482Z,14
2023-01-17T03:16:43.440Z,12
2023-01-17T03:17:43.440Z,11
2023-01-17T03:18:43.427Z,11
2023-01-17T03:19:43.441Z,11
2023-01-17T03:20:43.441Z,13
2023-01-17T03:21:43.441Z,14
2023-01-17T03:22:43.427Z,16
2023-01-17T03:23:43.441Z,14
2023-01-17T03:24:43.442Z,15
2023-01-17T03:25:43.441Z,16
2023-01-17T03:26:43.427Z,15
2023-01-17T03:27:43.441Z,16
2023-01-17T03:28:43.442Z,16
2023-01-17T03:29:43.428Z,15
2023-01-17T03:30:43.428Z,14
2023-01-17T03:31:43.442Z,11
2023-01-17T03:32:43.443Z,11
2023-01-17T03:33:43.428Z,11
2023-01-17T03:34:43.442Z,10
2023-01-17T03:35:43.442Z,9
2023-01-17T03:36:43.442Z,9
2023-01-17T03:37:43.428Z,8
2023-01-17T03:38:43.442Z,10
2023-01-17T03:39:43.443Z,7
2023-01-17T03:40:43.442Z,7
2023-01-17T03:41:43.429Z,7
2023-01-17T03:42:43.443Z,8
2023-01-17T03:43:43.444Z,6
2023-01-17T03:44:43.429Z,6
2023-01-17T03:45:43.429Z,9
2023-01-17T03:46:43.443Z,8
2023-01-17T03:47:43.444Z,7
2023-01-17T03:48:43.429Z,8
2023-01-17T03:49:43.493Z,7
2023-01-17T03:50:43.444Z,7
2023-01-17T03:51:43.444Z,7
2023-01-17T03:52:43.430Z,8
2023-01-17T03:53:43.444Z,8
2023-01-17T03:54:43.444Z,7
2023-01-17T03:55:43.444Z,7
2023-01-17T03:56:43.430Z,7
2023-01-17T03:57:43.444Z,7
2023-01-17T03:58:43.445Z,9
2023-01-17T03:59:43.444Z,7
2023-01-17T04:00:43.430Z,7
2023-01-17T04:01:43.444Z,6
2023-01-17T04:02:43.445Z,6
2023-01-17T04:03:43.431Z,10
2023-01-17T04:04:43.431Z,13
2023-01-17T04:05:43.445Z,11
2023-01-17T04:06:43.446Z,11
2023-01-17T04:07:43.431Z,11
2023-01-17T04:08:43.445Z,11
2023-01-17T04:09:43.445Z,11
2023-01-17T04:10:43.445Z,13
2023-01-17T04:11:43.431Z,12
2023-01-17T04:12:43.445Z,12
2023-01-17T04:13:43.446Z,16
2023-01-17T04:14:43.445Z,14
2023-01-17T04:15:43.432Z,15
2023-01-17T04:16:43.446Z,15
2023-01-17T04:17:43.447Z,15
2023-01-17T04:18:43.456Z,16
2023-01-17T04:19:43.432Z,16
2023-01-17T04:20:43.446Z,17
2023-01-17T04:21:43.447Z,16
2023-01-17T04:22:43.432Z,17
2023-01-17T04:23:43.432Z,18
2023-01-17T04:24:43.446Z,15
2023-01-17T04:25:43.447Z,13
2023-01-17T04:26:43.433Z,14
2023-01-17T04:27:43.447Z,12
2023-01-17T04:28:43.447Z,11
2023-01-17T04:29:43.447Z,11
2023-01-17T04:30:43.433Z,13
2023-01-17T04:31:43.447Z,12
2023-01-17T04:32:43.448Z,15
2023-01-17T04:33:43.447Z,11
2023-01-17T04:34:43.433Z,11
2023-01-17T04:35:43.512Z,11
2023-01-17T04:36:43.448Z,13
2023-01-17T04:37:43.434Z,10
2023-01-17T04:38:43.434Z,10
2023-01-17T04:39:43.448Z,9
2023-01-17T04:40:43.448Z,7
2023-01-17T04:41:43.434Z,9
2023-01-17T04:42:43.448Z,11
2023-01-17T04:43:43.448Z,13
2023-01-17T04:44:43.448Z,14
2023-01-17T04:45:43.434Z,14
2023-01-17T04:46:43.448Z,19
2023-01-17T04:47:43.493Z,12
2023-01-17T04:48:43.448Z,12
2023-01-17T04:49:43.435Z,13
2023-01-17T04:50:43.449Z,10
2023-01-17T04:51:43.449Z,10
2023-01-17T04:52:43.449Z,15
2023-01-17T04:53:43.435Z,15
2023-01-17T04:54:43.449Z,13
2023-01-17T04:55:43.450Z,12
2023-01-17T04:56:43.435Z,12
2023-01-17T04:57:43.435Z,13
2023-01-17T04:58:43.449Z,16
2023-01-17T04:59:43.490Z,15
2023-01-17T05:00:43.436Z,14
2023-01-17T05:01:43.450Z,17
2023-01-17T05:02:43.450Z,18
2023-01-17T05:03:43.450Z,14
2023-01-17T05:04:43.436Z,13
2023-01-17T05:05:43.450Z,10
2023-01-17T05:06:43.451Z,10
2023-01-17T05:07:43.450Z,9
2023-01-17T05:08:43.436Z,11
2023-01-17T05:09:43.450Z,16
2023-01-17T05:10:43.451Z,13
2023-01-17T05:11:43.436Z,16
2023-01-17T05:12:43.437Z,12
2023-01-17T05:13:43.451Z,14
2023-01-17T05:14:43.452Z,18
2023-01-17T05:15:43.437Z,15
2023-01-17T05:16:43.493Z,14
2023-01-17T05:17:43.451Z,16
2023-01-17T05:18:43.451Z,20
2023-01-17T05:19:43.437Z,20
2023-01-17T05:20:43.451Z,20
2023-01-17T05:21:43.451Z,18
2023-01-17T05:22:43.451Z,17
2023-01-17T05:23:43.438Z,23
2023-01-17T05:24:43.452Z,23
2023-01-17T05:25:43.452Z,18
2023-01-17T05:27:43.438Z,19
2023-01-17T05:28:43.452Z,18
2023-01-17T05:29:43.453Z,19
2023-01-17T05:30:43.438Z,24
2023-01-17T05:31:43.438Z,16
2023-01-17T05:32:43.452Z,15
2023-01-17T05:33:43.453Z,16
2023-01-17T05:34:43.438Z,16
2023-01-17T05:35:43.453Z,17
2023-01-17T05:36:43.453Z,19
2023-01-17T05:37:43.453Z,18
2023-01-17T05:38:43.439Z,19
2023-01-17T05:39:43.453Z,15
2023-01-17T05:40:43.453Z,16
2023-01-17T05:41:43.453Z,14
2023-01-17T05:42:43.439Z,11
2023-01-17T05:43:43.453Z,14
2023-01-17T05:44:43.454Z,12
2023-01-17T05:45:43.453Z,20
2023-01-17T05:46:43.439Z,19
2023-01-17T05:47:43.453Z,21
2023-01-17T05:48:43.454Z,18
2023-01-17T05:49:43.440Z,13
2023-01-17T05:50:43.440Z,14
2023-01-17T05:51:43.454Z,15
2023-01-17T05:52:43.454Z,19
2023-01-17T05:53:43.440Z,14
2023-01-17T05:54:43.454Z,16
2023-01-17T05:55:43.454Z,15
2023-01-17T05:56:43.454Z,17
2023-01-17T05:57:43.440Z,17
2023-01-17T05:58:43.454Z,18
2023-01-17T05:59:43.455Z,21
2023-01-17T06:00:43.454Z,25
2023-01-17T06:01:43.441Z,18
2023-01-17T06:02:43.455Z,17
2023-01-17T06:03:43.455Z,19
2023-01-17T06:04:43.441Z,18
2023-01-17T06:05:43.441Z,21
2023-01-17T06:06:43.455Z,20
2023-01-17T06:07:43.456Z,30
2023-01-17T06:08:43.441Z,33
2023-01-17T06:09:43.497Z,36
2023-01-17T06:10:43.455Z,34
2023-01-17T06:11:43.455Z,29
2023-01-17T06:12:43.441Z,30
2023-01-17T06:13:43.456Z,31
2023-01-17T06:14:43.456Z,30
2023-01-17T06:15:43.456Z,31
2023-01-17T06:16:43.442Z,29
2023-01-17T06:17:43.456Z,25
2023-01-17T06:18:43.457Z,27
2023-01-17T06:19:43.456Z,28
2023-01-17T06:20:43.442Z,30
2023-01-17T06:21:43.456Z,26
2023-01-17T06:22:43.457Z,26
2023-01-17T06:23:43.442Z,29
2023-01-17T06:24:43.442Z,32
2023-01-17T06:25:43.457Z,38
2023-01-17T06:26:43.482Z,34
2023-01-17T06:27:43.443Z,31
2023-01-17T06:28:43.457Z,31
2023-01-17T06:29:43.457Z,31
2023-01-17T06:30:43.457Z,39
2023-01-17T06:31:43.443Z,28
2023-01-17T06:32:43.457Z,29
2023-01-17T06:33:43.458Z,39
2023-01-17T06:34:43.457Z,28
2023-01-17T06:35:43.443Z,31
2023-01-17T06:36:43.457Z,34
2023-01-17T06:37:43.458Z,34
2023-01-17T06:38:43.443Z,30
2023-01-17T06:39:43.443Z,32
2023-01-17T06:40:43.458Z,31
2023-01-17T06:41:43.458Z,25
2023-01-17T06:42:43.444Z,31
2023-01-17T06:43:43.444Z,29
2023-01-17T06:44:43.458Z,29
2023-01-17T06:45:43.458Z,33
2023-01-17T06:46:43.444Z,24
2023-01-17T06:47:43.458Z,29
2023-01-17T06:48:43.458Z,31
2023-01-17T06:49:43.458Z,30
2023-01-17T06:50:43.444Z,35
2023-01-17T06:51:43.458Z,38
2023-01-17T06:52:43.459Z,27
2023-01-17T06:53:43.458Z,34
2023-01-17T06:54:43.445Z,35
2023-01-17T06:55:43.459Z,37
2023-01-17T06:56:43.459Z,32
2023-01-17T06:57:43.445Z,33
2023-01-17T06:58:43.445Z,32
2023-01-17T06:59:43.459Z,33
2023-01-17T07:00:43.460Z,27
2023-01-17T07:01:43.445Z,32
2023-01-17T07:02:43.501Z,26
2023-01-17T07:03:43.459Z,29
2023-01-17T07:04:43.459Z,34
2023-01-17T07:05:43.445Z,40
2023-01-17T07:06:43.459Z,28
2023-01-17T07:07:43.459Z,33
2023-01-17T07:08:43.459Z,30
2023-01-17T07:09:43.445Z,33
2023-01-17T07:10:43.460Z,33
2023-01-17T07:11:43.460Z,31
2023-01-17T07:12:43.460Z,42
2023-01-17T07:13:43.446Z,48
2023-01-17T07:14:43.460Z,45
2023-01-17T07:15:43.461Z,48
2023-01-17T07:16:43.446Z,49
2023-01-17T07:17:43.446Z,44
2023-01-17T07:18:43.460Z,49
2023-01-17T07:19:43.461Z,42
2023-01-17T07:20:43.446Z,44
2023-01-17T07:21:43.460Z,41
2023-01-17T07:22:43.460Z,43
2023-01-17T07:23:43.460Z,47
2023-01-17T07:24:43.446Z,48
2023-01-17T07:25:43.461Z,43
2023-01-17T07:26:43.506Z,42
2023-01-17T07:27:43.461Z,43
2023-01-17T07:28:43.447Z,41
2023-01-17T07:29:43.461Z,35
2023-01-17T07:30:43.462Z,38
2023-01-17T07:31:43.461Z,32
2023-01-17T07:32:43.447Z,28
2023-01-17T07:33:43.461Z,36
2023-01-17T07:34:43.462Z,36
2023-01-17T07:35:43.447Z,32
2023-01-17T07:36:43.447Z,31
2023-01-17T07:37:43.461Z,33
2023-01-17T07:38:43.502Z,33
2023-01-17T07:39:43.447Z,32
2023-01-17T07:40:43.462Z,31
2023-01-17T07:41:43.461Z,37
2023-01-17T07:42:43.462Z,37
2023-01-17T07:43:43.448Z,37
2023-01-17T07:44:43.462Z,28
2023-01-17T07:45:43.463Z,42
2023-01-17T07:46:43.462Z,47
2023-01-17T07:47:43.448Z,38
2023-01-17T07:48:43.462Z,38
2023-01-17T07:49:43.463Z,34
2023-01-17T07:50:43.448Z,34
2023-01-17T07:51:43.448Z,28
2023-01-17T07:52:43.462Z,31
2023-01-17T07:53:43.463Z,24
2023-01-17T07:54:43.448Z,35
2023-01-17T07:55:43.448Z,38
2023-01-17T07:56:43.462Z,37
2023-01-17T07:57:43.462Z,34
2023-01-17T07:58:43.448Z,29
2023-01-17T07:59:43.463Z,35
2023-01-17T08:00:43.463Z,39
2023-01-17T08:01:43.463Z,35
2023-01-17T08:02:43.449Z,30
2023-01-17T08:03:43.463Z,39
2023-01-17T08:04:43.464Z,39
2023-01-17T08:05:43.463Z,37
2023-01-17T08:06:43.449Z,36
2023-01-17T08:07:43.504Z,36
2023-01-17T08:08:43.464Z,44
2023-01-17T08:09:43.449Z,45
2023-01-17T08:10:43.449Z,37
2023-01-17T08:11:43.463Z,37
2023-01-17T08:12:43.464Z,38
2023-01-17T08:13:43.449Z,41
2023-01-17T08:14:43.464Z,47
2023-01-17T08:15:43.464Z,61
2023-01-17T08:16:43.464Z,51
2023-01-17T08:17:43.450Z,54
2023-01-17T08:18:43.464Z,54
2023-01-17T08:19:43.465Z,48
2023-01-17T08:20:43.464Z,47
2023-01-17T08:21:43.450Z,48
2023-01-17T08:22:43.464Z,54
2023-01-17T08:23:43.465Z,53
2023-01-17T08:24:43.450Z,49
2023-01-17T08:25:43.450Z,45
2023-01-17T08:26:43.464Z,42
2023-01-17T08:27:43.465Z,40
2023-01-17T08:28:43.450Z,41
2023-01-17T08:29:43.450Z,45
2023-01-17T08:30:43.465Z,50
2023-01-17T08:31:43.465Z,41
2023-01-17T08:32:43.451Z,44
2023-01-17T08:33:43.465Z,44
2023-01-17T08:34:43.465Z,41
2023-01-17T08:35:43.465Z,41
2023-01-17T08:36:43.451Z,35
2023-01-17T08:37:43.465Z,42
2023-01-17T08:38:43.466Z,46
2023-01-17T08:39:43.465Z,47
2023-01-17T08:40:43.451Z,47
2023-01-17T08:41:43.506Z,43
2023-01-17T08:42:43.466Z,37
2023-01-17T08:43:43.451Z,37
2023-01-17T08:44:43.451Z,36
2023-01-17T08:45:43.466Z,43
2023-01-17T08:46:43.466Z,42
2023-01-17T08:47:43.452Z,43
2023-01-17T08:48:43.466Z,44
2023-01-17T08:49:43.466Z,40
2023-01-17T08:50:43.466Z,41
2023-01-17T08:51:43.452Z,35
2023-01-17T08:52:43.466Z,29
2023-01-17T08:53:43.467Z,37
2023-01-17T08:54:43.466Z,41
2023-01-17T08:55:43.452Z,41
2023-01-17T08:56:43.467Z,51
2023-01-17T08:57:43.467Z,41
2023-01-17T08:58:43.453Z,42
2023-01-17T08:59:43.453Z,41
2023-01-17T09:00:43.467Z,45
2023-01-17T09:01:43.468Z,39
2023-01-17T09:02:43.453Z,36
2023-01-17T09:04:43.467Z,37
2023-01-17T09:05:43.467Z,41
2023-01-17T09:06:43.453Z,50
2023-01-17T09:07:43.468Z,45
2023-01-17T09:08:43.467Z,49
2023-01-17T09:09:43.468Z,46
2023-01-17T09:10:43.454Z,54
2023-01-17T09:11:43.468Z,48
2023-01-17T09:12:43.469Z,43
2023-01-17T09:13:43.468Z,51
2023-01-17T09:14:43.454Z,55
2023-01-17T09:15:43.468Z,72
2023-01-17T09:16:43.469Z,55
2023-01-17T09:17:43.454Z,48
2023-01-17T09:18:43.454Z,52
2023-01-17T09:19:43.469Z,41
2023-01-17T09:20:43.469Z,49
2023-01-17T09:21:43.455Z,39
2023-01-17T09:22:43.511Z,43
2023-01-17T09:23:43.469Z,41
2023-01-17T09:24:43.469Z,48
2023-01-17T09:25:43.455Z,48
2023-01-17T09:26:43.469Z,56
2023-01-17T09:27:43.469Z,60
2023-01-17T09:28:43.469Z,57
2023-01-17T09:29:43.455Z,49
2023-01-17T09:30:43.470Z,56
2023-01-17T09:31:43.470Z,44
2023-01-17T09:32:43.470Z,46
2023-01-17T09:33:43.456Z,46
2023-01-17T09:34:43.471Z,49
2023-01-17T09:35:43.471Z,56
2023-01-17T09:36:43.456Z,55
2023-01-17T09:37:43.456Z,54
2023-01-17T09:38:43.470Z,51
2023-01-17T09:39:43.535Z,47
2023-01-17T09:40:43.457Z,54
2023-01-17T09:41:43.471Z,49
2023-01-17T09:42:43.471Z,42
2023-01-17T09:43:43.471Z,48
2023-01-17T09:44:43.457Z,42
2023-01-17T09:45:43.471Z,43
2023-01-17T09:46:43.472Z,51
2023-01-17T09:47:43.471Z,50
2023-01-17T09:48:43.457Z,53
2023-01-17T09:49:43.472Z,44
2023-01-17T09:50:43.473Z,39
2023-01-17T09:51:43.458Z,45
2023-01-17T09:52:43.458Z,45
2023-01-17T09:53:43.472Z,47
2023-01-17T09:54:43.473Z,48
2023-01-17T09:55:43.458Z,52
2023-01-17T09:56:43.458Z,38
2023-01-17T09:57:43.472Z,37
2023-01-17T09:58:43.472Z,31
2023-01-17T09:59:43.459Z,36
2023-01-17T10:00:43.473Z,48
2023-01-17T10:01:43.473Z,49
2023-01-17T10:02:43.473Z,44
2023-01-17T10:03:43.459Z,47
2023-01-17T10:04:43.473Z,48
2023-01-17T10:05:43.474Z,49
2023-01-17T10:06:43.473Z,46
2023-01-17T10:07:43.460Z,48
2023-01-17T10:08:43.474Z,47
2023-01-17T10:09:43.475Z,45
2023-01-17T10:10:43.460Z,50
2023-01-17T10:11:43.460Z,48
2023-01-17T10:12:43.474Z,61
2023-01-17T10:13:43.475Z,48
2023-01-17T10:14:43.460Z,54
2023-01-17T10:15:43.516Z,65
2023-01-17T10:16:43.475Z,67
2023-01-17T10:17:43.475Z,57
2023-01-17T10:18:43.461Z,61
2023-01-17T10:19:43.475Z,55
2023-01-17T10:20:43.475Z,70
2023-01-17T10:22:43.461Z,49
2023-01-17T10:23:43.476Z,59
2023-01-17T10:24:43.476Z,47
2023-01-17T10:25:43.475Z,50
2023-01-17T10:26:43.462Z,59
2023-01-17T10:27:43.476Z,46
2023-01-17T10:28:43.477Z,41
2023-01-17T10:29:43.462Z,43
2023-01-17T10:30:43.462Z,51
2023-01-17T10:31:43.476Z,46
2023-01-17T10:32:43.477Z,55
2023-01-17T10:33:43.462Z,60
2023-01-17T10:34:43.477Z,44
2023-01-17T10:35:43.477Z,41
2023-01-17T10:36:43.477Z,47
2023-01-17T10:37:43.463Z,47
2023-01-17T10:38:43.477Z,53
2023-01-17T10:39:43.478Z,50
2023-01-17T10:40:43.477Z,44
2023-01-17T10:41:43.463Z,57
2023-01-17T10:42:43.478Z,52
2023-01-17T10:43:43.478Z,51
2023-01-17T10:44:43.478Z,57
2023-01-17T10:45:43.464Z,58
2023-01-17T10:46:43.478Z,57
2023-01-17T10:47:43.479Z,47
2023-01-17T10:48:43.464Z,50
2023-01-17T10:49:43.464Z,51
2023-01-17T10:50:43.478Z,64
2023-01-17T10:51:43.479Z,53
2023-01-17T10:52:43.465Z,67
2023-01-17T10:53:43.479Z,69
2023-01-17T10:55:43.479Z,50
2023-01-17T10:56:43.465Z,65
2023-01-17T10:57:43.480Z,61
2023-01-17T10:58:43.480Z,67
2023-01-17T10:59:43.480Z,69
2023-01-17T11:00:43.466Z,70
2023-01-17T11:02:43.481Z,51
2023-01-17T11:03:43.466Z,55
2023-01-17T11:04:43.466Z,55
2023-01-17T11:05:43.480Z,72
2023-01-17T11:06:43.481Z,69
2023-01-17T11:07:43.467Z,58
2023-01-17T11:08:43.523Z,68
2023-01-17T11:09:43.481Z,61
2023-01-17T11:10:43.481Z,53
2023-01-17T11:11:43.467Z,56
2023-01-17T11:12:43.481Z,62
2023-01-17T11:13:43.482Z,72
2023-01-17T11:14:43.481Z,68
2023-01-17T11:15:43.467Z,72
2023-01-17T11:16:43.482Z,68
2023-01-17T11:17:43.483Z,70
2023-01-17T11:18:43.482Z,69
2023-01-17T11:19:43.468Z,64
2023-01-17T11:20:43.482Z,67
2023-01-17T11:21:43.483Z,53
2023-01-17T11:22:43.468Z,59
2023-01-17T11:23:43.468Z,76
2023-01-17T11:24:43.483Z,60
2023-01-17T11:25:43.483Z,72
2023-01-17T11:26:43.469Z,68
2023-01-17T11:27:43.483Z,66
2023-01-17T11:28:43.483Z,67
2023-01-17T11:29:43.483Z,68
2023-01-17T11:30:43.469Z,61
2023-01-17T11:31:43.484Z,50
2023-01-17T11:32:43.485Z,51
2023-01-17T11:33:43.484Z,63
2023-01-17T11:34:43.470Z,55
2023-01-17T11:35:43.484Z,57
2023-01-17T11:36:43.485Z,63
2023-01-17T11:37:43.470Z,64
2023-01-17T11:38:43.470Z,58
2023-01-17T11:39:43.485Z,48
2023-01-17T11:40:43.486Z,54
2023-01-17T11:41:43.471Z,52
2023-01-17T11:42:43.471Z,50
2023-01-17T11:43:43.485Z,52
2023-01-17T11:44:43.485Z,59
2023-01-17T11:45:43.471Z,73
2023-01-17T11:46:43.486Z,65
2023-01-17T11:47:43.486Z,55
2023-01-17T11:48:43.486Z,63
2023-01-17T11:49:43.472Z,74
2023-01-17T11:50:43.486Z,60
2023-01-17T11:51:43.487Z,73
2023-01-17T11:52:43.486Z,76
2023-01-17T11:53:43.473Z,90
2023-01-17T11:54:43.551Z,85
2023-01-17T11:55:43.488Z,75
2023-01-17T11:56:43.473Z,71
2023-01-17T11:57:43.473Z,69
2023-01-17T11:58:43.487Z,60
2023-01-17T11:59:43.488Z,68
2023-01-17T12:00:43.474Z,88
2023-01-17T12:01:43.488Z,88
2023-01-17T12:02:43.488Z,87
2023-01-17T12:03:43.488Z,84
2023-01-17T12:04:43.475Z,67
2023-01-17T12:05:43.489Z,83
2023-01-17T12:06:43.535Z,78
2023-01-17T12:07:43.490Z,87
2023-01-17T12:08:43.476Z,95
2023-01-17T12:09:43.490Z,92
2023-01-17T12:10:43.491Z,81
2023-01-17T12:11:43.490Z,78
2023-01-17T12:12:43.477Z,89
2023-01-17T12:13:43.491Z,88
2023-01-17T12:14:43.492Z,82
2023-01-17T12:15:43.478Z,98
2023-01-17T12:16:43.478Z,84
2023-01-17T12:17:43.493Z,73
2023-01-17T12:18:43.534Z,83
2023-01-17T12:19:43.479Z,94
2023-01-17T12:20:43.494Z,97
2023-01-17T12:21:43.494Z,82
2023-01-17T12:22:43.494Z,91
2023-01-17T12:23:43.481Z,81
2023-01-17T12:24:43.495Z,83
2023-01-17T12:25:43.496Z,84
2023-01-17T12:26:43.496Z,82
2023-01-17T12:27:43.482Z,73
2023-01-17T12:28:43.497Z,81
2023-01-17T12:29:43.498Z,84
2023-01-17T12:30:43.483Z,100
2023-01-17T12:31:43.484Z,92
2023-01-17T12:32:43.499Z,86
2023-01-17T12:33:43.499Z,98
2023-01-17T12:34:43.485Z,90
2023-01-17T12:35:43.486Z,98
2023-01-17T12:36:43.500Z,84
2023-01-17T12:37:43.500Z,86
2023-01-17T12:38:43.487Z,92
2023-01-17T12:39:43.501Z,99
2023-01-17T12:40:43.502Z,84
2023-01-17T12:41:43.502Z,89
2023-01-17T12:42:43.489Z,72
2023-01-17T12:43:43.503Z,73
2023-01-17T12:44:43.504Z,64
2023-01-17T12:45:43.504Z,87
2023-01-17T12:46:43.490Z,72
2023-01-17T12:47:43.505Z,68
2023-01-17T12:48:43.506Z,70
2023-01-17T12:49:43.491Z,61
2023-01-17T12:53:43.493Z,66
2023-01-17T12:54:43.493Z,68
2023-01-17T12:55:43.508Z,71
2023-01-17T12:56:43.509Z,74
2023-01-17T12:57:43.494Z,69
2023-01-17T12:58:43.495Z,79
2023-01-17T12:59:43.509Z,73
2023-01-17T13:00:43.510Z,80
2023-01-17T13:01:43.496Z,80
2023-01-17T13:02:43.496Z,80
2023-01-17T13:03:43.510Z,84
2023-01-17T13:04:43.512Z,72
2023-01-17T13:05:43.497Z,85
2023-01-17T13:06:43.497Z,78
2023-01-17T13:07:43.512Z,75
2023-01-17T13:08:43.512Z,84
2023-01-17T13:09:43.498Z,81
2023-01-17T13:10:43.513Z,73
2023-01-17T13:11:43.513Z,74
2023-01-17T13:12:43.514Z,69
2023-01-17T13:13:43.500Z,59
2023-01-17T13:14:43.514Z,66
2023-01-17T13:15:43.515Z,75
2023-01-17T13:16:43.515Z,57
2023-01-17T13:17:43.501Z,54
2023-01-17T13:18:43.515Z,50
2023-01-17T13:19:43.516Z,58
2023-01-17T13:20:43.502Z,69
2023-01-17T13:21:43.502Z,62
2023-01-17T13:22:43.516Z,55
2023-01-17T13:23:43.517Z,56
2023-01-17T13:24:43.503Z,52
2023-01-17T13:25:43.519Z,59
2023-01-17T13:26:43.517Z,62
2023-01-17T13:27:43.517Z,62
2023-01-17T13:28:43.504Z,61
2023-01-17T13:29:43.518Z,64
2023-01-17T13:30:43.584Z,64
2023-01-17T13:31:43.518Z,52
2023-01-17T13:32:43.504Z,57
2023-01-17T13:33:43.519Z,60
2023-01-17T13:34:43.520Z,60
2023-01-17T13:35:43.519Z,54
2023-01-17T13:36:43.505Z,69
2023-01-17T13:37:43.519Z,68
2023-01-17T13:38:43.520Z,56
2023-01-17T13:39:43.506Z,56
2023-01-17T13:40:43.506Z,49
2023-01-17T13:41:43.520Z,52
2023-01-17T13:42:43.521Z,52
2023-01-17T13:43:43.507Z,56
2023-01-17T13:44:43.521Z,66
2023-01-17T13:45:43.521Z,47
2023-01-17T13:46:43.521Z,55
2023-01-17T13:47:43.507Z,52
2023-01-17T13:48:43.522Z,58
2023-01-17T13:49:43.523Z,56
2023-01-17T13:50:43.522Z,52
2023-01-17T13:51:43.508Z,65
2023-01-17T13:52:43.523Z,67
2023-01-17T13:53:43.523Z,66
2023-01-17T13:54:43.509Z,60
2023-01-17T13:55:43.509Z,70
2023-01-17T13:56:43.523Z,65
2023-01-17T13:57:43.524Z,59
2023-01-17T13:58:43.509Z,57
2023-01-17T13:59:43.510Z,59
2023-01-17T14:00:43.524Z,56
2023-01-17T14:01:43.524Z,57
2023-01-17T14:02:43.510Z,57
2023-01-17T14:03:43.525Z,55
2023-01-17T14:04:43.525Z,63
2023-01-17T14:05:43.525Z,49
2023-01-17T14:06:43.511Z,59
2023-01-17T14:07:43.525Z,64
2023-01-17T14:08:43.526Z,57
2023-01-17T14:09:43.525Z,61
2023-01-17T14:10:43.512Z,64
2023-01-17T14:11:43.526Z,57
2023-01-17T14:12:43.527Z,57
2023-01-17T14:13:43.512Z,61
2023-01-17T14:14:43.512Z,53
2023-01-17T14:15:43.526Z,54
2023-01-17T14:16:43.527Z,57
2023-01-17T14:17:43.513Z,54
2023-01-17T14:18:43.569Z,60
2023-01-17T14:19:43.527Z,59
2023-01-17T14:20:43.527Z,58
2023-01-17T14:21:43.513Z,63
2023-01-17T14:22:43.528Z,59
2023-01-17T14:23:43.528Z,58
2023-01-17T14:24:43.528Z,59
2023-01-17T14:25:43.514Z,64
2023-01-17T14:26:43.528Z,63
2023-01-17T14:27:43.529Z,62
2023-01-17T14:28:43.529Z,56
2023-01-17T14:29:43.515Z,52
2023-01-17T14:30:43.529Z,58